Etusivu
METAR-TAF:

METAR-TAF

Lentoasemat :

Kbely

Praha, Tšekki

Leveyspiiri: 50-07-17N, Pituuspiiri: 14-32-37E, korkeus merenpinnasta: 286 m

Tämänhetkinen sää

Tämä raportti tehtiin 17 minuuttia sitten, kello 08.00 UTC
Tuuli 2 kn eri suunnista
Lämpötila 21°C
Kosteus 69%
Ilmanpaine 1015 hPa
Näkyvyys 10 km tai enemmän
Muutamia pilviä 2300 ft:n korkeudessa

METAR: LKKB 140800Z VRB02KT 9999 FEW023 21/15 Q1015 NOSIG

Aika: 10:17 (08:17 UTC)

Sääennuste

Tämä raportti tehtiin 3 tuntia ja 17 minuuttia sitten, kello 05.00 UTC
Ennuste voimassa 14. päivästä klo 06 UTC - 15. päivään klo 06 UTC
Tuuli 4 kn etelästä/kaakosta
Näkyvyys 10 km tai enemmän
ei pilviä alle 1500 m:ssä eikä cumulonimbus-pilviä
Ajoittain
14. päivästä klo 09 UTC - 14. päivään klo 14 UTC
Hajanaisia pilviä 3500 ft:n korkeudessa
Tulossa
14. päivästä klo 18 UTC - 14. päivään klo 20 UTC
Tuuli 2 kn eri suunnista

TAF: LKKB 140500Z 1406/1506 15004KT CAVOK TEMPO 1409/1414 SCT035 BECMG 1418/1420 VRB02KT

Säähavainnot ja -ennusteet yli 4000 lentoasemalta (METAR- ja TAF-raportit).

Käytössä olevat sääasemat on merkitty karttaan keltaisilla ja punaisilla pisteillä.

Aseta hiiri pisteen päälle nähdäksesi sääaseman nimen.

Klikkaa sitten nähdäksesi säähavainnot ja -ennusteet.

Kartan vaihtaminen: klikkaa mustalla rastilla varustettuja vihreitä pisteitä, niin voit zoomata sisään; viivalla varustettua vihreää pistettä, niin voit zoomata ulos tai vihreitä nuolia, niin pääset viereisille kartoille.


METAR-TAF: